Time;durP1;ratioP1;P1;durP2;ratioP2;P2;SDS_P1;SDS_P2;PMS_P1;PMS_P2;Temp;Humidity;BMP_temperature;BMP_pressure;BME280_temperature;BME280_humidity;BME280_pressure;Samples;Min_cycle;Max_cycle;Signal;HPM_P1;HPM_P2
2021/08/09 00:02:04;;;;;;;2.90;2.70;;;;;;;17.73;72.82;99873.58;257229;1103;115174;-65
2021/08/09 00:07:09;;;;;;;3.57;3.23;;;;;;;17.73;72.46;99878.97;257029;1103;115307;-67
2021/08/09 00:12:12;;;;;;;3.25;2.95;;;;;;;17.69;72.67;99879.84;257140;1103;115401;-69
2021/08/09 00:17:16;;;;;;;4.10;3.13;;;;;;;17.69;72.81;99875.25;255520;1100;115458;-66
2021/08/09 00:22:19;;;;;;;3.00;2.80;;;;;;;17.64;72.59;99864.45;257114;1104;117358;-68
2021/08/09 00:27:22;;;;;;;12.70;2.50;;;;;;;17.60;72.72;99863.39;257134;1104;115686;-67
2021/08/09 00:32:26;;;;;;;3.73;3.43;;;;;;;17.58;72.64;99856.67;254436;1104;115895;-66
2021/08/09 00:37:30;;;;;;;6.23;3.43;;;;;;;17.53;72.82;99841.33;257167;1103;115257;-66
2021/08/09 00:42:33;;;;;;;4.85;2.78;;;;;;;17.47;72.81;99847.81;257066;1103;116740;-66
2021/08/09 00:47:36;;;;;;;4.48;3.13;;;;;;;17.38;72.32;99841.41;257222;1104;115401;-66
2021/08/09 00:52:40;;;;;;;5.70;3.00;;;;;;;17.28;72.58;99839.56;257155;1104;115610;-67
2021/08/09 00:57:43;;;;;;;5.90;3.38;;;;;;;17.13;72.49;99848.50;257278;1103;115604;-66
2021/08/09 01:02:46;;;;;;;4.93;3.40;;;;;;;16.96;72.12;99856.11;257142;1103;117180;-66
2021/08/09 01:08:08;;;;;;;5.33;3.10;;;;;;;16.86;72.60;99858.81;256261;1103;114931;-66
2021/08/09 01:13:35;;;;;;;2.95;2.65;;;;;;;16.78;73.10;99864.78;256970;1104;116620;-66
2021/08/09 01:18:42;;;;;;;2.58;2.38;;;;;;;16.78;73.18;99876.35;257153;1104;114984;-68
2021/08/09 01:23:48;;;;;;;;;;;;;;;16.78;73.50;99881.73;257366;1104;114818;-66
2021/08/09 01:28:58;;;;;;;5.10;3.00;;;;;;;16.79;73.88;99887.92;257938;1104;102545;-66
2021/08/09 01:34:03;;;;;;;3.43;3.17;;;;;;;16.85;73.93;99881.43;257224;1103;115852;-66
2021/08/09 01:39:09;;;;;;;2.50;2.40;;;;;;;16.94;73.89;99897.84;253729;1099;114645;-66
2021/08/09 01:44:15;;;;;;;3.28;2.13;;;;;;;16.92;73.77;99895.42;257260;1103;116549;-67
2021/08/09 01:49:20;;;;;;;3.30;2.23;;;;;;;16.87;73.65;99898.13;257077;1103;115340;-66
2021/08/09 01:54:23;;;;;;;7.33;2.93;;;;;;;16.96;73.96;99887.61;257237;1104;115743;-66
2021/08/09 01:59:27;;;;;;;2.80;2.53;;;;;;;16.96;73.63;99903.77;255329;1104;115760;-66
2021/08/09 02:04:30;;;;;;;3.03;2.83;;;;;;;16.97;73.53;99895.42;257211;1103;114794;-67
2021/08/09 02:09:35;;;;;;;2.77;2.57;;;;;;;16.96;73.76;99893.80;257024;1103;115908;-66
2021/08/09 02:14:49;;;;;;;3.17;2.93;;;;;;;16.94;73.11;99904.04;257161;1104;115078;-67
2021/08/09 02:20:02;;;;;;;3.97;2.90;;;;;;;16.84;72.65;99918.31;257156;1103;114772;-68
2021/08/09 02:25:32;;;;;;;3.25;3.05;;;;;;;16.79;72.99;99917.55;257123;1103;115039;-66
2021/08/09 02:30:42;;;;;;;6.30;2.58;;;;;;;16.71;73.17;99926.97;257186;1104;114971;-67
2021/08/09 02:35:48;;;;;;;2.45;2.33;;;;;;;16.68;72.55;99932.88;257142;1104;115392;-67
2021/08/09 02:40:51;;;;;;;;;;;;;;;16.64;73.08;99941.76;257215;1103;115324;-67
2021/08/09 02:45:56;;;;;;;3.68;2.90;;;;;;;16.55;73.08;99962.17;257890;1103;102089;-67
2021/08/09 02:50:59;;;;;;;3.23;3.00;;;;;;;16.47;73.25;99950.08;257149;1104;115426;-67
2021/08/09 02:56:03;;;;;;;3.83;3.10;;;;;;;16.37;73.15;99974.27;257058;1103;114911;-67
2021/08/09 03:01:08;;;;;;;6.00;2.78;;;;;;;16.37;73.24;99974.27;257039;1100;115194;-67
2021/08/09 03:06:12;;;;;;;4.85;2.58;;;;;;;16.31;73.29;99981.52;256372;1098;115398;-67
2021/08/09 03:11:16;;;;;;;2.78;2.55;;;;;;;16.24;73.29;100001.67;255299;1104;115230;-67
2021/08/09 03:16:19;;;;;;;3.00;2.37;;;;;;;16.21;73.61;100021.03;257116;1104;117175;-67
2021/08/09 03:21:23;;;;;;;2.90;2.70;;;;;;;16.23;73.78;100017.00;254206;1104;115285;-66
2021/08/09 03:26:29;;;;;;;3.75;2.95;;;;;;;16.26;73.98;100019.16;256238;1099;115647;-66
2021/08/09 03:31:33;;;;;;;3.45;2.63;;;;;;;16.30;73.85;100035.59;255083;1100;115896;-66
2021/08/09 03:36:45;;;;;;;5.00;2.85;;;;;;;16.33;73.89;100052.02;254215;1104;116119;-66
2021/08/09 03:41:49;;;;;;;5.03;2.18;;;;;;;16.37;73.77;100044.23;255528;1104;116943;-66
2021/08/09 03:46:52;;;;;;;3.80;3.10;;;;;;;16.38;73.68;100057.41;257071;1104;118425;-66
2021/08/09 03:51:55;;;;;;;3.43;2.50;;;;;;;16.49;74.01;100060.95;253846;1099;116359;-66
2021/08/09 03:56:58;;;;;;;4.67;2.73;;;;;;;16.59;74.05;100062.83;257302;1103;117145;-66
2021/08/09 04:02:02;;;;;;;7.67;2.43;;;;;;;16.68;73.90;100062.09;254635;1104;117370;-66
2021/08/09 04:07:06;;;;;;;8.40;2.98;;;;;;;16.71;73.52;100063.44;256227;1104;116398;-66
2021/08/09 04:12:10;;;;;;;2.18;1.95;;;;;;;16.75;73.33;100065.33;257041;1104;116999;-66
2021/08/09 04:17:14;;;;;;;2.08;1.98;;;;;;;16.80;73.35;100061.84;257289;1104;116254;-66
2021/08/09 04:22:17;;;;;;;2.23;1.87;;;;;;;16.96;73.50;100068.84;257107;1104;116029;-67
2021/08/09 04:27:20;;;;;;;2.50;2.27;;;;;;;16.93;72.90;100072.07;257103;1104;116793;-67
2021/08/09 04:32:24;;;;;;;5.20;2.03;;;;;;;16.92;73.05;100083.91;257076;1103;115420;-67
2021/08/09 04:37:27;;;;;;;2.60;2.40;;;;;;;16.97;72.99;100092.00;257237;1104;115934;-66
2021/08/09 04:42:31;;;;;;;5.53;2.07;;;;;;;17.24;73.10;100102.52;257300;1104;115651;-66
2021/08/09 04:47:34;;;;;;;5.90;2.10;;;;;;;17.37;72.72;100101.18;257379;1103;115051;-66
2021/08/09 04:52:43;;;;;;;3.88;2.30;;;;;;;17.35;73.02;100093.37;257284;1104;115889;-66
2021/08/09 04:57:46;;;;;;;1.90;1.80;;;;;;;17.45;72.62;100092.53;257111;1104;115628;-69
2021/08/09 05:02:50;;;;;;;7.80;2.43;;;;;;;17.66;72.61;100093.36;257184;1104;115636;-69
2021/08/09 05:07:55;;;;;;;2.33;1.93;;;;;;;17.89;72.43;100097.34;257216;1104;116021;-69
2021/08/09 05:12:59;;;;;;;3.73;1.60;;;;;;;18.17;71.87;100107.50;257260;1104;115942;-69
2021/08/09 05:18:03;;;;;;;3.85;2.05;;;;;;;19.19;70.41;100107.76;256151;1104;115031;-66
2021/08/09 05:23:06;;;;;;;1.50;1.40;;;;;;;20.45;68.88;100105.68;257280;1104;115783;-66
2021/08/09 05:28:09;;;;;;;2.97;2.77;;;;;;;20.81;68.39;100118.70;256952;1103;115233;-67
2021/08/09 05:33:12;;;;;;;3.68;2.00;;;;;;;22.29;66.22;100125.97;257025;1103;118496;-70
2021/08/09 05:38:16;;;;;;;6.68;2.25;;;;;;;24.28;64.17;100130.95;253869;1104;115814;-69
2021/08/09 05:43:19;;;;;;;1.75;1.65;;;;;;;24.32;62.15;100134.66;253528;1104;115520;-69
2021/08/09 05:48:23;;;;;;;3.00;2.50;;;;;;;26.31;58.98;100135.27;253690;1104;114880;-69
2021/08/09 05:53:28;;;;;;;3.15;2.10;;;;;;;26.89;58.46;100139.09;255371;1103;115362;-70
2021/08/09 05:58:31;;;;;;;1.68;1.58;;;;;;;26.06;57.38;100145.17;255026;1104;114574;-69
2021/08/09 06:03:35;;;;;;;2.10;1.70;;;;;;;25.59;57.29;100141.63;253882;1104;115061;-70
2021/08/09 06:08:42;;;;;;;;;;;;;;;25.35;57.06;100153.06;254820;1104;115493;-70
2021/08/09 06:13:46;;;;;;;2.45;1.70;;;;;;;24.74;57.16;100154.95;254399;1104;182171;-68
2021/08/09 06:18:50;;;;;;;2.60;1.70;;;;;;;23.95;57.32;100171.33;253829;1104;115395;-69
2021/08/09 06:23:54;;;;;;;2.83;1.40;;;;;;;23.47;57.60;100166.55;255987;1100;115656;-69
2021/08/09 06:28:58;;;;;;;3.73;2.13;;;;;;;23.39;58.23;100158.31;253808;1104;115333;-70
2021/08/09 06:34:01;;;;;;;1.50;1.28;;;;;;;23.24;58.46;100158.67;253669;1103;115770;-70
2021/08/09 06:39:05;;;;;;;3.93;1.58;;;;;;;22.99;58.67;100163.59;253509;1103;115417;-69
2021/08/09 06:44:09;;;;;;;1.78;1.60;;;;;;;22.84;58.91;100169.39;253535;1104;115108;-69
2021/08/09 06:49:12;;;;;;;2.07;1.37;;;;;;;22.69;58.60;100172.39;253738;1103;114839;-69
2021/08/09 06:54:15;;;;;;;3.20;2.03;;;;;;;22.54;58.26;100170.82;253705;1104;115168;-69
2021/08/09 06:59:18;;;;;;;3.93;1.85;;;;;;;22.76;58.10;100173.59;253915;1104;115332;-69
2021/08/09 07:04:21;;;;;;;1.50;1.40;;;;;;;23.15;57.71;100175.75;257113;1103;115912;-68
2021/08/09 07:09:25;;;;;;;2.85;1.78;;;;;;;23.77;56.11;100181.34;257078;1103;115181;-69
2021/08/09 07:14:28;;;;;;;1.77;1.20;;;;;;;23.55;55.40;100178.61;257206;1104;114793;-69
2021/08/09 07:19:31;;;;;;;3.43;1.45;;;;;;;24.34;56.56;100186.11;257227;1104;115467;-69
2021/08/09 07:24:36;;;;;;;2.13;1.37;;;;;;;25.41;56.25;100180.97;257208;1104;115755;-68
2021/08/09 07:29:39;;;;;;;;;;;;;;;26.11;55.07;100185.17;254889;1103;114953;-68
2021/08/09 07:34:42;;;;;;;3.20;1.38;;;;;;;26.36;53.72;100176.09;257921;1104;102752;-68
2021/08/09 07:39:46;;;;;;;4.28;1.70;;;;;;;26.56;53.33;100184.69;255591;1100;115402;-68
2021/08/09 07:44:49;;;;;;;2.53;1.48;;;;;;;26.70;52.65;100186.03;254480;1103;115545;-69
2021/08/09 07:49:52;;;;;;;1.65;1.25;;;;;;;26.87;52.78;100184.33;253660;1104;115176;-68
2021/08/09 07:54:55;;;;;;;2.20;1.40;;;;;;;26.96;52.35;100177.67;253694;1098;115532;-69
2021/08/09 07:59:58;;;;;;;1.00;1.00;;;;;;;26.95;51.95;100183.45;253752;1103;114861;-69
2021/08/09 08:05:03;;;;;;;5.43;1.30;;;;;;;27.12;52.51;100181.42;256748;1103;116325;-69
2021/08/09 08:10:08;;;;;;;1.77;1.60;;;;;;;27.22;51.40;100188.41;254751;1104;115957;-69
2021/08/09 08:15:14;;;;;;;1.45;1.35;;;;;;;27.09;50.38;100195.77;257033;1104;115108;-69
2021/08/09 08:20:18;;;;;;;3.75;1.28;;;;;;;27.09;50.02;100198.51;255578;1104;115463;-68
2021/08/09 08:25:21;;;;;;;4.35;1.63;;;;;;;27.02;49.83;100198.23;253655;1103;116062;-69
2021/08/09 08:30:25;;;;;;;1.45;1.28;;;;;;;26.94;49.48;100207.27;253521;1098;116032;-69
2021/08/09 08:35:32;;;;;;;0.98;0.98;;;;;;;26.84;48.44;100191.27;255212;1104;116004;-69
2021/08/09 08:40:46;;;;;;;1.75;1.55;;;;;;;26.95;48.33;100187.02;254459;1104;116092;-67
2021/08/09 08:45:56;;;;;;;0.95;0.48;;;;;;;27.07;47.79;100189.83;255805;1104;116877;-67
2021/08/09 08:51:01;;;;;;;1.00;1.00;;;;;;;27.04;47.06;100201.44;253808;1104;116373;-67
2021/08/09 08:56:09;;;;;;;1.38;0.80;;;;;;;27.12;46.61;100203.31;253969;1098;116315;-67
2021/08/09 09:01:34;;;;;;;1.13;0.65;;;;;;;27.21;46.23;100211.44;254403;1104;115543;-70
2021/08/09 09:06:43;;;;;;;1.43;1.05;;;;;;;27.21;46.02;100216.14;257094;1103;115259;-67
2021/08/09 09:11:47;;;;;;;2.38;0.90;;;;;;;27.21;45.95;100213.41;257238;1104;115209;-67
2021/08/09 09:16:51;;;;;;;0.60;0.60;;;;;;;27.11;44.96;100214.59;256995;1103;115728;-68
2021/08/09 09:21:54;;;;;;;1.33;1.20;;;;;;;27.09;44.86;100217.66;257026;1103;115890;-68
2021/08/09 09:27:02;;;;;;;1.23;0.90;;;;;;;27.12;44.67;100211.53;257101;1104;115616;-70
2021/08/09 09:32:15;;;;;;;1.38;0.95;;;;;;;27.18;44.25;100212.13;256678;1099;115152;-69
2021/08/09 09:37:37;;;;;;;0.63;0.63;;;;;;;27.25;43.96;100217.05;253600;1104;116161;-69
2021/08/09 09:42:45;;;;;;;4.48;0.95;;;;;;;27.37;44.28;100220.66;253652;1104;115625;-68
2021/08/09 09:48:02;;;;;;;2.37;1.00;;;;;;;27.41;43.85;100221.59;253673;1104;116091;-68
2021/08/09 09:53:19;;;;;;;2.15;1.23;;;;;;;27.44;43.26;100217.39;254456;1100;115798;-68
2021/08/09 09:58:25;;;;;;;1.35;1.20;;;;;;;27.23;42.18;100219.31;253538;1103;115139;-67
2021/08/09 10:03:32;;;;;;;1.30;1.10;;;;;;;27.29;42.37;100216.05;253509;1104;115604;-69
2021/08/09 10:08:45;;;;;;;0.80;0.80;;;;;;;27.39;42.66;100217.59;253577;1104;114831;-68
2021/08/09 10:13:49;;;;;;;0.70;0.70;;;;;;;27.40;42.19;100213.72;253557;1104;114711;-68
2021/08/09 10:18:53;;;;;;;0.60;0.60;;;;;;;27.48;41.69;100227.34;255341;1104;115974;-68
2021/08/09 10:23:57;;;;;;;0.98;0.63;;;;;;;27.31;41.93;100218.45;257276;1103;115445;-69
2021/08/09 10:29:06;;;;;;;0.85;0.85;;;;;;;27.32;42.36;100218.12;255624;1104;115819;-69
2021/08/09 10:34:31;;;;;;;4.10;0.90;;;;;;;27.52;41.72;100221.96;253624;1104;115009;-69
2021/08/09 10:40:00;;;;;;;1.03;0.90;;;;;;;27.47;41.15;100213.98;257055;1104;115652;-69
2021/08/09 10:45:07;;;;;;;2.65;0.80;;;;;;;27.44;41.53;100220.13;254478;1104;115693;-70
2021/08/09 10:50:39;;;;;;;1.58;0.70;;;;;;;27.48;41.20;100210.91;253542;1103;115381;-69
2021/08/09 10:55:44;;;;;;;0.67;0.57;;;;;;;27.55;40.54;100210.34;253672;1099;115429;-68
2021/08/09 11:00:50;;;;;;;2.00;0.63;;;;;;;27.59;39.93;100203.09;257225;1103;115521;-68
2021/08/09 11:05:53;;;;;;;1.73;0.95;;;;;;;27.73;39.75;100200.86;255350;1104;114740;-69
2021/08/09 11:11:05;;;;;;;1.05;0.80;;;;;;;27.95;39.60;100196.11;253745;1104;115637;-69
2021/08/09 11:16:08;;;;;;;1.30;0.80;;;;;;;27.90;38.65;100199.06;253567;1104;114667;-67
2021/08/09 11:21:13;;;;;;;0.40;0.40;;;;;;;27.53;38.49;100198.92;253485;1104;116258;-69
2021/08/09 11:26:28;;;;;;;1.23;0.90;;;;;;;27.39;39.02;100206.64;253615;1103;115683;-69
2021/08/09 11:31:49;;;;;;;0.87;0.60;;;;;;;27.25;38.74;100212.38;253601;1104;115611;-68
2021/08/09 11:37:04;;;;;;;0.80;0.73;;;;;;;27.42;38.61;100220.45;253700;1098;115593;-69
2021/08/09 11:42:07;;;;;;;1.28;0.40;;;;;;;27.34;38.82;100217.78;257370;1104;115959;-68
2021/08/09 11:47:22;;;;;;;1.05;0.70;;;;;;;27.48;39.60;100218.32;257357;1103;136757;-70
2021/08/09 11:52:26;;;;;;;0.70;0.70;;;;;;;27.55;39.35;100215.02;257021;1104;116224;-67
2021/08/09 11:57:39;;;;;;;0.93;0.93;;;;;;;27.60;38.80;100210.16;257109;1104;115458;-68
2021/08/09 12:03:11;;;;;;;1.33;0.85;;;;;;;27.67;38.53;100209.63;257203;1103;115741;-67
2021/08/09 12:08:14;;;;;;;0.80;0.75;;;;;;;27.66;37.86;100217.04;253893;1104;116141;-68
2021/08/09 12:13:29;;;;;;;0.93;0.90;;;;;;;27.65;37.91;100214.64;253470;1104;115100;-69
2021/08/09 12:18:32;;;;;;;3.68;1.35;;;;;;;27.71;37.62;100210.55;254717;1104;115405;-67
2021/08/09 12:23:58;;;;;;;0.85;0.83;;;;;;;27.69;37.58;100216.37;253690;1104;115812;-68
2021/08/09 12:29:06;;;;;;;0.85;0.85;;;;;;;27.57;37.38;100210.80;253456;1104;115247;-68
2021/08/09 12:34:09;;;;;;;0.88;0.88;;;;;;;27.46;36.34;100215.11;257031;1104;116134;-67
2021/08/09 12:39:30;;;;;;;0.80;0.70;;;;;;;27.41;36.51;100218.05;255118;1100;115778;-69
2021/08/09 12:44:33;;;;;;;1.53;1.10;;;;;;;27.29;36.68;100220.72;254940;1104;115822;-72
2021/08/09 12:49:37;;;;;;;1.30;0.80;;;;;;;27.31;36.98;100216.52;254770;1104;115242;-71
2021/08/09 12:54:40;;;;;;;2.40;1.00;;;;;;;27.31;36.61;100221.99;253637;1104;115144;-70
2021/08/09 12:59:43;;;;;;;3.35;1.23;;;;;;;27.26;36.93;100213.17;253606;1104;115496;-67
2021/08/09 13:04:47;;;;;;;0.80;0.80;;;;;;;27.20;37.41;100215.34;253581;1104;115884;-68
2021/08/09 13:09:49;;;;;;;1.23;0.80;;;;;;;27.08;37.74;100218.00;253649;1100;114855;-68
2021/08/09 13:14:52;;;;;;;1.95;1.05;;;;;;;27.05;37.16;100213.98;253485;1104;115562;-68
2021/08/09 13:19:56;;;;;;;3.05;1.10;;;;;;;26.86;36.82;100210.88;257161;1104;115396;-67
2021/08/09 13:25:03;;;;;;;0.90;0.80;;;;;;;26.80;37.29;100209.47;257211;1104;115883;-67
2021/08/09 13:30:08;;;;;;;0.93;0.80;;;;;;;26.85;37.10;100198.34;257231;1104;115422;-68
2021/08/09 13:35:11;;;;;;;0.80;0.75;;;;;;;26.93;37.15;100202.13;257110;1103;115951;-68
2021/08/09 13:40:14;;;;;;;1.10;1.10;;;;;;;26.83;37.48;100200.60;257272;1104;115284;-68
2021/08/09 13:45:40;;;;;;;1.75;0.90;;;;;;;26.89;37.50;100202.02;257021;1104;118145;-67
2021/08/09 13:50:43;;;;;;;1.45;1.10;;;;;;;26.91;36.99;100191.52;257156;1103;115447;-68
2021/08/09 13:55:47;;;;;;;2.50;0.88;;;;;;;26.85;36.81;100181.92;257194;1103;117129;-67
2021/08/09 14:00:50;;;;;;;0.83;0.83;;;;;;;26.86;36.71;100182.73;257103;1103;215496;-68
2021/08/09 14:05:53;;;;;;;1.10;1.00;;;;;;;26.75;36.50;100193.25;256961;1103;116165;-67
2021/08/09 14:10:57;;;;;;;1.20;0.90;;;;;;;26.57;36.63;100195.30;256227;1104;117393;-69
2021/08/09 14:16:02;;;;;;;1.15;0.98;;;;;;;26.56;37.39;100201.89;253525;1104;115108;-69
2021/08/09 14:21:25;;;;;;;1.85;1.28;;;;;;;26.48;36.66;100195.33;256938;1104;115732;-69
2021/08/09 14:26:29;;;;;;;1.50;1.13;;;;;;;26.38;37.46;100198.43;257142;1103;115496;-67
2021/08/09 14:31:33;;;;;;;5.40;1.53;;;;;;;26.34;37.08;100191.21;257053;1104;116348;-68
2021/08/09 14:36:39;;;;;;;0.97;0.93;;;;;;;26.30;37.66;100192.96;257214;1103;116155;-68
2021/08/09 14:41:42;;;;;;;0.83;0.80;;;;;;;26.26;37.91;100192.05;257137;1104;116038;-67
2021/08/09 14:46:46;;;;;;;1.03;1.03;;;;;;;26.23;38.11;100198.16;257124;1103;115520;-68
2021/08/09 14:51:49;;;;;;;1.03;0.88;;;;;;;26.15;37.59;100202.52;257300;1104;115458;-67
2021/08/09 14:56:52;;;;;;;1.20;1.10;;;;;;;26.09;38.03;100206.55;257227;1104;115380;-67
2021/08/09 15:01:57;;;;;;;1.95;1.05;;;;;;;26.03;38.00;100205.13;254311;1104;116524;-67
2021/08/09 15:07:00;;;;;;;1.73;1.35;;;;;;;25.83;38.35;100203.91;253623;1104;115905;-70
2021/08/09 15:12:03;;;;;;;0.95;0.73;;;;;;;25.72;38.29;100199.91;253511;1103;115593;-69
2021/08/09 15:17:06;;;;;;;1.55;1.28;;;;;;;25.57;38.58;100198.47;257086;1104;115147;-69
2021/08/09 15:22:11;;;;;;;5.88;1.10;;;;;;;25.52;38.42;100190.44;254762;1103;116997;-69
2021/08/09 15:27:13;;;;;;;1.20;1.05;;;;;;;25.43;38.08;100197.83;253816;1104;137017;-69
2021/08/09 15:32:16;;;;;;;4.88;1.45;;;;;;;25.24;38.73;100186.45;253686;1103;115368;-69
2021/08/09 15:37:22;;;;;;;2.30;1.03;;;;;;;25.13;38.53;100194.95;253574;1104;115867;-68
2021/08/09 15:42:25;;;;;;;1.93;1.25;;;;;;;25.00;38.76;100195.11;253764;1104;115054;-69
2021/08/09 15:47:28;;;;;;;3.73;1.25;;;;;;;24.88;38.34;100198.42;253644;1103;115441;-68
2021/08/09 15:52:30;;;;;;;1.37;1.27;;;;;;;24.83;39.03;100195.84;253669;1100;115230;-68
2021/08/09 15:57:33;;;;;;;2.73;1.23;;;;;;;24.76;39.33;100184.63;254478;1104;115543;-70
2021/08/09 16:02:37;;;;;;;2.93;1.20;;;;;;;24.66;39.69;100182.19;257090;1104;115857;-69
2021/08/09 16:07:46;;;;;;;1.28;1.13;;;;;;;24.57;39.46;100186.81;257097;1104;115806;-69
2021/08/09 16:12:49;;;;;;;1.43;1.30;;;;;;;24.47;39.35;100188.70;257215;1103;115594;-68
2021/08/09 16:17:53;;;;;;;3.75;1.45;;;;;;;24.41;39.92;100184.54;257127;1104;116006;-68
2021/08/09 16:23:12;;;;;;;1.70;1.28;;;;;;;24.32;40.27;100186.42;256989;1103;115462;-69
2021/08/09 16:28:16;;;;;;;1.43;1.33;;;;;;;24.17;39.55;100184.88;255985;1104;115202;-69
2021/08/09 16:33:19;;;;;;;1.13;1.03;;;;;;;24.05;39.47;100183.88;253870;1104;115943;-71
2021/08/09 16:38:23;;;;;;;4.48;1.08;;;;;;;23.93;39.98;100178.20;253716;1104;115900;-69
2021/08/09 16:43:27;;;;;;;2.55;0.75;;;;;;;23.80;40.49;100169.02;253670;1104;114712;-69
2021/08/09 16:48:31;;;;;;;0.95;0.95;;;;;;;23.68;40.38;100168.78;253784;1104;115006;-71
2021/08/09 16:53:34;;;;;;;5.70;1.55;;;;;;;23.53;41.59;100169.18;253816;1104;115504;-68
2021/08/09 16:58:38;;;;;;;1.08;1.08;;;;;;;23.38;42.43;100171.12;253671;1104;115754;-71
2021/08/09 17:03:42;;;;;;;3.70;1.23;;;;;;;23.23;42.96;100173.41;253701;1104;115708;-68
2021/08/09 17:08:45;;;;;;;1.15;1.15;;;;;;;23.02;43.84;100175.78;253679;1100;115571;-69
2021/08/09 17:13:49;;;;;;;1.18;1.03;;;;;;;22.80;44.53;100176.55;253592;1104;115638;-70
2021/08/09 17:18:58;;;;;;;1.65;0.93;;;;;;;22.53;45.30;100163.77;255611;1104;115445;-69
2021/08/09 17:24:02;;;;;;;1.63;1.53;;;;;;;22.30;46.34;100171.04;253599;1099;116086;-68
2021/08/09 17:29:28;;;;;;;0.93;0.93;;;;;;;22.06;47.51;100164.97;253535;1104;115295;-68
2021/08/09 17:34:31;;;;;;;2.48;1.05;;;;;;;21.79;48.54;100165.70;254103;1103;115864;-69
2021/08/09 17:39:34;;;;;;;2.80;1.05;;;;;;;21.53;49.21;100165.34;253720;1104;115338;-68
2021/08/09 17:44:40;;;;;;;0.68;0.68;;;;;;;21.25;49.79;100174.48;253724;1104;114710;-69
2021/08/09 17:49:44;;;;;;;1.00;0.90;;;;;;;21.02;51.05;100170.73;256687;1104;115288;-68
2021/08/09 17:54:53;;;;;;;0.95;0.95;;;;;;;20.80;51.74;100157.73;256938;1104;116055;-69
2021/08/09 17:59:56;;;;;;;2.10;1.43;;;;;;;20.55;53.08;100158.08;257025;1104;114989;-69
2021/08/09 18:05:00;;;;;;;3.65;1.33;;;;;;;20.34;53.32;100169.14;257011;1103;115722;-69
2021/08/09 18:10:07;;;;;;;0.85;0.83;;;;;;;20.08;53.70;100173.22;257262;1104;115514;-67
2021/08/09 18:15:10;;;;;;;3.70;1.20;;;;;;;19.88;54.71;100166.09;257201;1103;116097;-69
2021/08/09 18:20:15;;;;;;;2.35;1.45;;;;;;;19.67;55.11;100179.02;256934;1104;120069;-69
2021/08/09 18:25:19;;;;;;;1.93;1.38;;;;;;;19.41;55.75;100180.29;257039;1104;116037;-70
2021/08/09 18:30:23;;;;;;;3.50;1.10;;;;;;;19.15;56.13;100187.77;257076;1104;116368;-70
2021/08/09 18:35:25;;;;;;;2.25;1.70;;;;;;;18.76;56.41;100187.72;257048;1103;117046;-68
2021/08/09 18:40:29;;;;;;;4.10;1.30;;;;;;;18.52;57.12;100195.63;253652;1104;117271;-68
2021/08/09 18:45:32;;;;;;;4.25;1.28;;;;;;;18.35;57.67;100198.64;253596;1104;116015;-68
2021/08/09 18:50:39;;;;;;;0.93;0.93;;;;;;;18.09;57.54;100192.50;253885;1104;117360;-66
2021/08/09 18:55:43;;;;;;;2.13;1.63;;;;;;;17.78;57.93;100191.73;256128;1104;116479;-66
2021/08/09 19:00:46;;;;;;;2.43;1.47;;;;;;;17.48;58.78;100205.19;255206;1104;115878;-68
2021/08/09 19:05:52;;;;;;;1.38;1.28;;;;;;;17.29;59.45;100204.91;253733;1104;115526;-69
2021/08/09 19:10:56;;;;;;;3.03;1.58;;;;;;;17.17;59.79;100207.84;253564;1104;115318;-69
2021/08/09 19:16:01;;;;;;;1.40;1.30;;;;;;;16.95;60.11;100207.27;254491;1099;115468;-69
2021/08/09 19:21:05;;;;;;;1.68;1.58;;;;;;;16.75;60.42;100201.82;253495;1104;115375;-67
2021/08/09 19:26:10;;;;;;;4.15;1.95;;;;;;;16.70;61.28;100210.69;254466;1100;114704;-67
2021/08/09 19:31:15;;;;;;;4.27;1.73;;;;;;;16.53;61.30;100214.59;256764;1104;114920;-66
2021/08/09 19:36:19;;;;;;;6.33;1.70;;;;;;;16.31;62.06;100215.57;254883;1104;117116;-67
2021/08/09 19:41:23;;;;;;;3.28;1.73;;;;;;;16.26;62.46;100212.03;253892;1104;115445;-66
2021/08/09 19:46:28;;;;;;;11.95;2.25;;;;;;;16.26;62.55;100209.34;257047;1103;117506;-66
2021/08/09 19:51:32;;;;;;;5.28;2.55;;;;;;;16.08;62.76;100207.91;257082;1104;114870;-66
2021/08/09 19:56:36;;;;;;;7.18;2.35;;;;;;;15.92;63.23;100208.86;257093;1103;116521;-68
2021/08/09 20:01:39;;;;;;;7.80;2.10;;;;;;;15.76;63.33;100216.82;257210;1104;115303;-68
2021/08/09 20:06:44;;;;;;;7.30;1.83;;;;;;;15.71;64.08;100216.78;257111;1104;115807;-67
2021/08/09 20:11:48;;;;;;;5.03;2.35;;;;;;;15.69;64.23;100216.22;257105;1104;115427;-68
2021/08/09 20:16:52;;;;;;;2.88;1.98;;;;;;;15.65;64.41;100225.05;257231;1103;116436;-68
2021/08/09 20:21:56;;;;;;;3.48;2.10;;;;;;;15.50;64.00;100226.52;257091;1104;115363;-67
2021/08/09 20:27:19;;;;;;;2.15;1.95;;;;;;;15.33;64.73;100222.31;257252;1104;115539;-67
2021/08/09 20:32:23;;;;;;;2.18;1.95;;;;;;;15.19;65.12;100226.48;257233;1104;114955;-68
2021/08/09 20:37:27;;;;;;;2.68;2.45;;;;;;;15.07;65.04;100216.69;257370;1104;116723;-68
2021/08/09 20:42:31;;;;;;;9.03;2.80;;;;;;;15.03;66.05;100215.56;255907;1104;116482;-65
2021/08/09 20:47:41;;;;;;;5.18;3.83;;;;;;;15.00;66.15;100221.44;257215;1104;116256;-65
2021/08/09 20:52:45;;;;;;;6.05;2.88;;;;;;;14.99;66.11;100225.17;257060;1104;215986;-68
2021/08/09 20:57:48;;;;;;;2.48;2.25;;;;;;;14.97;66.60;100230.02;254609;1104;115718;-66
2021/08/09 21:02:51;;;;;;;3.40;3.10;;;;;;;14.88;66.28;100226.14;255073;1104;115583;-65
2021/08/09 21:07:56;;;;;;;5.58;3.13;;;;;;;14.70;66.88;100224.58;254681;1104;114963;-66
2021/08/09 21:12:59;;;;;;;3.10;2.77;;;;;;;14.58;67.28;100221.22;256329;1104;116120;-65
2021/08/09 21:18:02;;;;;;;4.35;2.90;;;;;;;14.51;67.07;100215.22;255703;1104;116027;-66
2021/08/09 21:23:05;;;;;;;3.70;2.68;;;;;;;14.51;67.42;100211.72;256403;1104;116880;-65
2021/08/09 21:28:08;;;;;;;4.13;2.90;;;;;;;14.55;67.72;100212.85;254483;1104;116420;-66
2021/08/09 21:33:11;;;;;;;5.33;2.53;;;;;;;14.55;68.13;100226.27;253669;1104;116299;-65
2021/08/09 21:38:14;;;;;;;3.50;2.43;;;;;;;14.45;68.43;100226.94;255159;1104;115889;-66
2021/08/09 21:43:17;;;;;;;2.40;2.20;;;;;;;14.36;68.57;100228.41;254024;1104;116354;-64
2021/08/09 21:48:21;;;;;;;15.18;4.10;;;;;;;14.30;69.22;100218.67;255109;1104;116397;-66
2021/08/09 21:53:24;;;;;;;6.28;3.05;;;;;;;14.31;69.05;100209.56;255304;1104;117528;-66
2021/08/09 21:58:29;;;;;;;11.88;4.00;;;;;;;14.43;69.22;100218.33;255494;1104;115996;-66
2021/08/09 22:03:37;;;;;;;5.43;3.98;;;;;;;14.41;69.00;100207.84;254766;1104;116326;-65
2021/08/09 22:08:46;;;;;;;4.70;3.15;;;;;;;14.38;69.10;100210.98;257271;1104;116638;-66
2021/08/09 22:13:54;;;;;;;3.05;2.45;;;;;;;14.32;69.07;100206.64;257114;1104;116219;-66
2021/08/09 22:19:03;;;;;;;9.35;3.55;;;;;;;14.27;69.49;100203.06;257059;1103;116268;-65
2021/08/09 22:24:08;;;;;;;4.53;3.58;;;;;;;14.28;69.87;100207.38;254287;1104;116914;-67
2021/08/09 22:29:14;;;;;;;3.33;2.93;;;;;;;14.22;70.08;100203.80;255537;1104;116285;-67
2021/08/09 22:34:20;;;;;;;9.55;3.70;;;;;;;14.17;70.38;100203.73;253987;1100;117141;-67
2021/08/09 22:39:28;;;;;;;7.73;3.75;;;;;;;14.11;70.46;100212.75;257306;1104;117641;-67
2021/08/09 22:44:34;;;;;;;3.87;3.43;;;;;;;14.09;70.79;100210.31;256470;1104;116250;-67
2021/08/09 22:49:39;;;;;;;16.25;4.58;;;;;;;14.06;70.75;100212.70;254957;1104;116771;-67
2021/08/09 22:54:51;;;;;;;10.30;4.08;;;;;;;14.04;70.44;100215.63;254278;1104;117640;-67
2021/08/09 23:00:01;;;;;;;9.60;3.70;;;;;;;13.97;70.61;100223.02;255907;1104;117277;-66
2021/08/09 23:05:07;;;;;;;8.05;3.50;;;;;;;13.94;71.31;100218.14;257237;1104;116420;-67
2021/08/09 23:10:14;;;;;;;12.07;4.90;;;;;;;14.02;71.17;100219.61;253959;1104;116118;-67
2021/08/09 23:15:20;;;;;;;11.45;3.20;;;;;;;14.05;71.12;100219.13;255560;1099;115861;-68